sensor_id;sensor_type;location;lat;lon;timestamp;P1;durP1;ratioP1;P2;durP2;ratioP2
15216;SDS011;7711;46.634;14.318;2023-12-20T00:02:13;28.70;;;12.63;;
15216;SDS011;7711;46.634;14.318;2023-12-20T00:04:41;23.80;;;13.13;;
15216;SDS011;7711;46.634;14.318;2023-12-20T00:07:08;24.20;;;12.63;;
15216;SDS011;7711;46.634;14.318;2023-12-20T00:09:35;25.03;;;13.23;;
15216;SDS011;7711;46.634;14.318;2023-12-20T00:12:02;32.23;;;13.37;;
15216;SDS011;7711;46.634;14.318;2023-12-20T00:14:29;33.67;;;13.77;;
15216;SDS011;7711;46.634;14.318;2023-12-20T00:16:56;30.43;;;13.87;;
15216;SDS011;7711;46.634;14.318;2023-12-20T00:19:23;42.30;;;15.10;;
15216;SDS011;7711;46.634;14.318;2023-12-20T00:21:52;31.57;;;13.97;;
15216;SDS011;7711;46.634;14.318;2023-12-20T00:24:18;25.07;;;13.10;;
15216;SDS011;7711;46.634;14.318;2023-12-20T00:26:45;49.70;;;12.73;;
15216;SDS011;7711;46.634;14.318;2023-12-20T00:29:12;46.17;;;13.93;;
15216;SDS011;7711;46.634;14.318;2023-12-20T00:31:39;48.37;;;13.13;;
15216;SDS011;7711;46.634;14.318;2023-12-20T00:34:06;47.83;;;17.10;;
15216;SDS011;7711;46.634;14.318;2023-12-20T00:36:33;33.63;;;13.90;;
15216;SDS011;7711;46.634;14.318;2023-12-20T00:39:02;36.87;;;13.27;;
15216;SDS011;7711;46.634;14.318;2023-12-20T00:41:29;46.87;;;15.77;;
15216;SDS011;7711;46.634;14.318;2023-12-20T00:43:56;28.57;;;13.40;;
15216;SDS011;7711;46.634;14.318;2023-12-20T00:46:23;47.53;;;15.17;;
15216;SDS011;7711;46.634;14.318;2023-12-20T00:48:50;36.77;;;14.73;;
15216;SDS011;7711;46.634;14.318;2023-12-20T00:51:17;35.97;;;13.00;;
15216;SDS011;7711;46.634;14.318;2023-12-20T00:53:44;37.23;;;12.97;;
15216;SDS011;7711;46.634;14.318;2023-12-20T00:56:15;34.70;;;14.00;;
15216;SDS011;7711;46.634;14.318;2023-12-20T00:58:42;33.30;;;13.03;;
15216;SDS011;7711;46.634;14.318;2023-12-20T01:01:09;24.67;;;12.60;;
15216;SDS011;7711;46.634;14.318;2023-12-20T01:03:36;29.60;;;13.57;;
15216;SDS011;7711;46.634;14.318;2023-12-20T01:06:03;31.27;;;11.97;;
15216;SDS011;7711;46.634;14.318;2023-12-20T01:08:31;18.30;;;11.73;;
15216;SDS011;7711;46.634;14.318;2023-12-20T01:10:59;27.03;;;12.43;;
15216;SDS011;7711;46.634;14.318;2023-12-20T01:13:28;38.67;;;13.23;;
15216;SDS011;7711;46.634;14.318;2023-12-20T01:15:55;40.13;;;13.20;;
15216;SDS011;7711;46.634;14.318;2023-12-20T01:18:21;55.23;;;14.10;;
15216;SDS011;7711;46.634;14.318;2023-12-20T01:20:48;59.53;;;14.17;;
15216;SDS011;7711;46.634;14.318;2023-12-20T01:23:15;32.07;;;12.97;;
15216;SDS011;7711;46.634;14.318;2023-12-20T01:25:42;31.33;;;13.00;;
15216;SDS011;7711;46.634;14.318;2023-12-20T01:28:09;24.33;;;11.97;;
15216;SDS011;7711;46.634;14.318;2023-12-20T01:30:37;25.23;;;11.77;;
15216;SDS011;7711;46.634;14.318;2023-12-20T01:33:04;25.03;;;12.60;;
15216;SDS011;7711;46.634;14.318;2023-12-20T01:35:31;35.70;;;12.97;;
15216;SDS011;7711;46.634;14.318;2023-12-20T01:37:58;28.00;;;12.90;;
15216;SDS011;7711;46.634;14.318;2023-12-20T01:40:25;27.23;;;12.53;;
15216;SDS011;7711;46.634;14.318;2023-12-20T01:42:58;22.23;;;11.63;;
15216;SDS011;7711;46.634;14.318;2023-12-20T01:45:26;21.23;;;12.00;;
15216;SDS011;7711;46.634;14.318;2023-12-20T01:47:54;31.10;;;11.70;;
15216;SDS011;7711;46.634;14.318;2023-12-20T01:50:24;36.57;;;10.70;;
15216;SDS011;7711;46.634;14.318;2023-12-20T01:52:52;27.77;;;11.67;;
15216;SDS011;7711;46.634;14.318;2023-12-20T01:55:22;32.10;;;11.67;;
15216;SDS011;7711;46.634;14.318;2023-12-20T01:57:50;21.43;;;11.33;;
15216;SDS011;7711;46.634;14.318;2023-12-20T02:00:18;29.47;;;12.07;;
15216;SDS011;7711;46.634;14.318;2023-12-20T02:02:48;29.80;;;12.53;;
15216;SDS011;7711;46.634;14.318;2023-12-20T02:05:20;23.83;;;10.80;;
15216;SDS011;7711;46.634;14.318;2023-12-20T02:07:47;31.47;;;11.07;;
15216;SDS011;7711;46.634;14.318;2023-12-20T02:10:15;26.87;;;11.47;;
15216;SDS011;7711;46.634;14.318;2023-12-20T02:12:42;29.20;;;11.77;;
15216;SDS011;7711;46.634;14.318;2023-12-20T02:15:09;29.03;;;11.63;;
15216;SDS011;7711;46.634;14.318;2023-12-20T02:17:35;25.93;;;11.20;;
15216;SDS011;7711;46.634;14.318;2023-12-20T02:20:03;27.57;;;10.63;;
15216;SDS011;7711;46.634;14.318;2023-12-20T02:22:32;34.73;;;11.67;;
15216;SDS011;7711;46.634;14.318;2023-12-20T02:24:59;23.93;;;11.57;;
15216;SDS011;7711;46.634;14.318;2023-12-20T02:27:26;24.60;;;11.37;;
15216;SDS011;7711;46.634;14.318;2023-12-20T02:29:55;27.23;;;11.90;;
15216;SDS011;7711;46.634;14.318;2023-12-20T02:32:22;35.87;;;12.80;;
15216;SDS011;7711;46.634;14.318;2023-12-20T02:34:51;41.37;;;15.80;;
15216;SDS011;7711;46.634;14.318;2023-12-20T02:37:18;41.00;;;14.60;;
15216;SDS011;7711;46.634;14.318;2023-12-20T02:39:46;41.70;;;13.73;;
15216;SDS011;7711;46.634;14.318;2023-12-20T02:42:13;23.83;;;13.00;;
15216;SDS011;7711;46.634;14.318;2023-12-20T02:44:40;37.27;;;13.20;;
15216;SDS011;7711;46.634;14.318;2023-12-20T02:47:07;32.10;;;12.10;;
15216;SDS011;7711;46.634;14.318;2023-12-20T02:49:34;30.30;;;12.50;;
15216;SDS011;7711;46.634;14.318;2023-12-20T02:52:01;19.67;;;11.80;;
15216;SDS011;7711;46.634;14.318;2023-12-20T02:54:28;21.50;;;12.70;;
15216;SDS011;7711;46.634;14.318;2023-12-20T02:56:57;27.47;;;12.80;;
15216;SDS011;7711;46.634;14.318;2023-12-20T02:59:24;19.30;;;12.20;;
15216;SDS011;7711;46.634;14.318;2023-12-20T03:01:51;25.33;;;12.40;;
15216;SDS011;7711;46.634;14.318;2023-12-20T03:04:17;25.23;;;12.07;;
15216;SDS011;7711;46.634;14.318;2023-12-20T03:06:44;36.77;;;12.77;;
15216;SDS011;7711;46.634;14.318;2023-12-20T03:09:11;30.47;;;13.57;;
15216;SDS011;7711;46.634;14.318;2023-12-20T03:11:38;25.80;;;12.57;;
15216;SDS011;7711;46.634;14.318;2023-12-20T03:14:07;26.90;;;12.33;;
15216;SDS011;7711;46.634;14.318;2023-12-20T03:16:34;23.50;;;12.80;;
15216;SDS011;7711;46.634;14.318;2023-12-20T03:19:01;27.90;;;11.60;;
15216;SDS011;7711;46.634;14.318;2023-12-20T03:21:28;26.00;;;13.13;;
15216;SDS011;7711;46.634;14.318;2023-12-20T03:23:55;35.03;;;14.27;;
15216;SDS011;7711;46.634;14.318;2023-12-20T03:26:22;27.17;;;12.97;;
15216;SDS011;7711;46.634;14.318;2023-12-20T03:28:49;32.83;;;13.37;;
15216;SDS011;7711;46.634;14.318;2023-12-20T03:31:18;33.53;;;12.77;;
15216;SDS011;7711;46.634;14.318;2023-12-20T03:33:46;25.63;;;12.57;;
15216;SDS011;7711;46.634;14.318;2023-12-20T03:36:13;25.23;;;12.33;;
15216;SDS011;7711;46.634;14.318;2023-12-20T03:38:40;28.10;;;12.57;;
15216;SDS011;7711;46.634;14.318;2023-12-20T03:41:07;25.83;;;12.83;;
15216;SDS011;7711;46.634;14.318;2023-12-20T03:43:34;26.20;;;12.43;;
15216;SDS011;7711;46.634;14.318;2023-12-20T03:46:01;27.87;;;12.73;;
15216;SDS011;7711;46.634;14.318;2023-12-20T03:48:30;23.87;;;12.37;;
15216;SDS011;7711;46.634;14.318;2023-12-20T03:50:57;19.67;;;12.33;;
15216;SDS011;7711;46.634;14.318;2023-12-20T03:53:24;31.83;;;12.00;;
15216;SDS011;7711;46.634;14.318;2023-12-20T03:55:51;36.83;;;12.50;;
15216;SDS011;7711;46.634;14.318;2023-12-20T03:58:18;35.67;;;12.17;;
15216;SDS011;7711;46.634;14.318;2023-12-20T04:00:45;28.70;;;13.40;;
15216;SDS011;7711;46.634;14.318;2023-12-20T04:03:12;34.40;;;12.17;;
15216;SDS011;7711;46.634;14.318;2023-12-20T04:05:41;47.53;;;12.70;;
15216;SDS011;7711;46.634;14.318;2023-12-20T04:08:09;33.73;;;11.40;;
15216;SDS011;7711;46.634;14.318;2023-12-20T04:10:36;37.40;;;11.87;;
15216;SDS011;7711;46.634;14.318;2023-12-20T04:13:03;38.00;;;11.30;;
15216;SDS011;7711;46.634;14.318;2023-12-20T04:15:30;30.53;;;12.20;;
15216;SDS011;7711;46.634;14.318;2023-12-20T04:17:57;47.13;;;12.47;;
15216;SDS011;7711;46.634;14.318;2023-12-20T04:20:24;25.60;;;11.93;;
15216;SDS011;7711;46.634;14.318;2023-12-20T04:22:53;31.50;;;11.40;;
15216;SDS011;7711;46.634;14.318;2023-12-20T04:25:20;24.93;;;11.27;;
15216;SDS011;7711;46.634;14.318;2023-12-20T04:27:47;29.47;;;11.03;;
15216;SDS011;7711;46.634;14.318;2023-12-20T04:30:14;23.47;;;10.80;;
15216;SDS011;7711;46.634;14.318;2023-12-20T04:32:41;28.17;;;10.60;;
15216;SDS011;7711;46.634;14.318;2023-12-20T04:35:08;21.37;;;11.57;;
15216;SDS011;7711;46.634;14.318;2023-12-20T04:37:35;29.10;;;10.97;;
15216;SDS011;7711;46.634;14.318;2023-12-20T04:40:04;26.17;;;11.13;;
15216;SDS011;7711;46.634;14.318;2023-12-20T04:42:32;36.83;;;12.33;;
15216;SDS011;7711;46.634;14.318;2023-12-20T04:44:59;26.53;;;11.13;;
15216;SDS011;7711;46.634;14.318;2023-12-20T04:47:26;31.00;;;10.83;;
15216;SDS011;7711;46.634;14.318;2023-12-20T04:49:53;23.37;;;10.93;;
15216;SDS011;7711;46.634;14.318;2023-12-20T04:52:20;26.30;;;11.03;;
15216;SDS011;7711;46.634;14.318;2023-12-20T04:54:47;26.27;;;10.27;;
15216;SDS011;7711;46.634;14.318;2023-12-20T04:57:16;16.07;;;9.67;;
15216;SDS011;7711;46.634;14.318;2023-12-20T04:59:43;28.17;;;10.00;;
15216;SDS011;7711;46.634;14.318;2023-12-20T05:02:10;29.03;;;10.93;;
15216;SDS011;7711;46.634;14.318;2023-12-20T05:04:37;19.87;;;10.60;;
15216;SDS011;7711;46.634;14.318;2023-12-20T05:07:04;28.40;;;12.20;;
15216;SDS011;7711;46.634;14.318;2023-12-20T05:09:31;23.90;;;10.13;;
15216;SDS011;7711;46.634;14.318;2023-12-20T05:11:58;21.67;;;9.87;;
15216;SDS011;7711;46.634;14.318;2023-12-20T05:14:27;20.47;;;10.93;;
15216;SDS011;7711;46.634;14.318;2023-12-20T05:16:54;21.07;;;10.30;;
15216;SDS011;7711;46.634;14.318;2023-12-20T05:19:21;19.93;;;9.70;;
15216;SDS011;7711;46.634;14.318;2023-12-20T05:21:49;22.87;;;10.43;;
15216;SDS011;7711;46.634;14.318;2023-12-20T05:24:15;21.57;;;10.83;;
15216;SDS011;7711;46.634;14.318;2023-12-20T05:26:42;25.10;;;12.00;;
15216;SDS011;7711;46.634;14.318;2023-12-20T05:29:09;22.70;;;11.83;;
15216;SDS011;7711;46.634;14.318;2023-12-20T05:31:38;27.90;;;11.63;;
15216;SDS011;7711;46.634;14.318;2023-12-20T05:34:04;28.90;;;10.77;;
15216;SDS011;7711;46.634;14.318;2023-12-20T05:36:31;17.27;;;10.63;;
15216;SDS011;7711;46.634;14.318;2023-12-20T05:38:58;16.87;;;10.97;;
15216;SDS011;7711;46.634;14.318;2023-12-20T05:41:25;17.50;;;10.47;;
15216;SDS011;7711;46.634;14.318;2023-12-20T05:43:52;18.30;;;10.63;;
15216;SDS011;7711;46.634;14.318;2023-12-20T05:46:19;19.63;;;9.73;;
15216;SDS011;7711;46.634;14.318;2023-12-20T05:48:47;18.87;;;10.10;;
15216;SDS011;7711;46.634;14.318;2023-12-20T05:51:14;20.57;;;10.00;;
15216;SDS011;7711;46.634;14.318;2023-12-20T05:53:41;24.60;;;11.10;;
15216;SDS011;7711;46.634;14.318;2023-12-20T05:56:09;27.60;;;11.10;;
15216;SDS011;7711;46.634;14.318;2023-12-20T05:58:37;23.60;;;11.67;;
15216;SDS011;7711;46.634;14.318;2023-12-20T06:01:05;31.10;;;14.53;;
15216;SDS011;7711;46.634;14.318;2023-12-20T06:03:33;30.77;;;12.27;;
15216;SDS011;7711;46.634;14.318;2023-12-20T06:06:05;25.63;;;11.93;;
15216;SDS011;7711;46.634;14.318;2023-12-20T06:08:32;20.70;;;11.60;;
15216;SDS011;7711;46.634;14.318;2023-12-20T06:10:59;30.97;;;13.30;;
15216;SDS011;7711;46.634;14.318;2023-12-20T06:13:26;35.53;;;16.87;;
15216;SDS011;7711;46.634;14.318;2023-12-20T06:15:54;21.93;;;11.10;;
15216;SDS011;7711;46.634;14.318;2023-12-20T06:18:21;24.90;;;11.20;;
15216;SDS011;7711;46.634;14.318;2023-12-20T06:20:49;29.93;;;12.23;;
15216;SDS011;7711;46.634;14.318;2023-12-20T06:23:17;25.37;;;11.13;;
15216;SDS011;7711;46.634;14.318;2023-12-20T06:25:44;24.77;;;11.03;;
15216;SDS011;7711;46.634;14.318;2023-12-20T06:28:11;40.27;;;11.60;;
15216;SDS011;7711;46.634;14.318;2023-12-20T06:30:39;29.77;;;12.10;;
15216;SDS011;7711;46.634;14.318;2023-12-20T06:33:06;37.03;;;12.90;;
15216;SDS011;7711;46.634;14.318;2023-12-20T06:35:35;34.47;;;12.63;;
15216;SDS011;7711;46.634;14.318;2023-12-20T06:38:02;20.50;;;11.87;;
15216;SDS011;7711;46.634;14.318;2023-12-20T06:40:30;28.43;;;11.07;;
15216;SDS011;7711;46.634;14.318;2023-12-20T06:42:57;21.50;;;11.70;;
15216;SDS011;7711;46.634;14.318;2023-12-20T06:45:25;28.63;;;12.67;;
15216;SDS011;7711;46.634;14.318;2023-12-20T06:47:52;26.57;;;11.67;;
15216;SDS011;7711;46.634;14.318;2023-12-20T06:50:19;27.10;;;12.90;;
15216;SDS011;7711;46.634;14.318;2023-12-20T06:52:46;23.70;;;13.23;;
15216;SDS011;7711;46.634;14.318;2023-12-20T06:55:14;22.90;;;12.77;;
15216;SDS011;7711;46.634;14.318;2023-12-20T06:57:43;26.53;;;12.63;;
15216;SDS011;7711;46.634;14.318;2023-12-20T07:00:11;21.73;;;12.90;;
15216;SDS011;7711;46.634;14.318;2023-12-20T07:02:38;22.50;;;13.33;;
15216;SDS011;7711;46.634;14.318;2023-12-20T07:05:05;23.43;;;13.40;;
15216;SDS011;7711;46.634;14.318;2023-12-20T07:07:33;27.83;;;14.10;;
15216;SDS011;7711;46.634;14.318;2023-12-20T07:10:00;22.77;;;13.00;;
15216;SDS011;7711;46.634;14.318;2023-12-20T07:12:27;22.47;;;12.80;;
15216;SDS011;7711;46.634;14.318;2023-12-20T07:14:55;24.73;;;12.97;;
15216;SDS011;7711;46.634;14.318;2023-12-20T07:17:22;18.37;;;12.53;;
15216;SDS011;7711;46.634;14.318;2023-12-20T07:19:49;22.07;;;12.30;;
15216;SDS011;7711;46.634;14.318;2023-12-20T07:22:16;18.73;;;12.27;;
15216;SDS011;7711;46.634;14.318;2023-12-20T07:24:43;23.50;;;12.57;;
15216;SDS011;7711;46.634;14.318;2023-12-20T07:27:10;20.53;;;12.77;;
15216;SDS011;7711;46.634;14.318;2023-12-20T07:29:36;24.67;;;13.47;;
15216;SDS011;7711;46.634;14.318;2023-12-20T07:32:05;24.87;;;13.30;;
15216;SDS011;7711;46.634;14.318;2023-12-20T07:34:33;24.67;;;13.40;;
15216;SDS011;7711;46.634;14.318;2023-12-20T07:37:00;23.23;;;13.93;;
15216;SDS011;7711;46.634;14.318;2023-12-20T07:39:27;23.07;;;14.33;;
15216;SDS011;7711;46.634;14.318;2023-12-20T07:41:54;23.83;;;14.70;;
15216;SDS011;7711;46.634;14.318;2023-12-20T07:44:21;24.33;;;13.60;;
15216;SDS011;7711;46.634;14.318;2023-12-20T07:46:48;24.63;;;14.17;;
15216;SDS011;7711;46.634;14.318;2023-12-20T07:49:16;21.40;;;13.97;;
15216;SDS011;7711;46.634;14.318;2023-12-20T07:51:43;20.90;;;12.50;;
15216;SDS011;7711;46.634;14.318;2023-12-20T07:54:10;21.17;;;13.00;;
15216;SDS011;7711;46.634;14.318;2023-12-20T07:56:37;22.73;;;11.97;;
15216;SDS011;7711;46.634;14.318;2023-12-20T07:59:05;23.00;;;12.73;;
15216;SDS011;7711;46.634;14.318;2023-12-20T08:01:32;18.83;;;12.33;;
15216;SDS011;7711;46.634;14.318;2023-12-20T08:03:59;20.73;;;12.97;;
15216;SDS011;7711;46.634;14.318;2023-12-20T08:06:27;21.03;;;13.43;;
15216;SDS011;7711;46.634;14.318;2023-12-20T08:08:54;21.90;;;12.77;;
15216;SDS011;7711;46.634;14.318;2023-12-20T08:11:21;21.53;;;12.37;;
15216;SDS011;7711;46.634;14.318;2023-12-20T08:13:48;19.33;;;12.90;;
15216;SDS011;7711;46.634;14.318;2023-12-20T08:16:14;18.87;;;12.40;;
15216;SDS011;7711;46.634;14.318;2023-12-20T08:18:42;17.53;;;11.57;;
15216;SDS011;7711;46.634;14.318;2023-12-20T08:21:09;20.77;;;12.20;;
15216;SDS011;7711;46.634;14.318;2023-12-20T08:23:38;20.20;;;12.07;;
15216;SDS011;7711;46.634;14.318;2023-12-20T08:26:05;20.77;;;13.00;;
15216;SDS011;7711;46.634;14.318;2023-12-20T08:28:32;19.73;;;12.70;;
15216;SDS011;7711;46.634;14.318;2023-12-20T08:30:58;20.07;;;13.30;;
15216;SDS011;7711;46.634;14.318;2023-12-20T08:33:25;18.23;;;11.97;;
15216;SDS011;7711;46.634;14.318;2023-12-20T08:35:52;18.43;;;12.73;;
15216;SDS011;7711;46.634;14.318;2023-12-20T08:38:19;19.40;;;12.90;;
15216;SDS011;7711;46.634;14.318;2023-12-20T08:40:47;21.00;;;13.43;;
15216;SDS011;7711;46.634;14.318;2023-12-20T08:43:14;20.17;;;13.20;;
15216;SDS011;7711;46.634;14.318;2023-12-20T08:45:41;24.87;;;14.37;;
15216;SDS011;7711;46.634;14.318;2023-12-20T08:48:08;19.33;;;13.23;;
15216;SDS011;7711;46.634;14.318;2023-12-20T08:50:35;19.57;;;12.80;;
15216;SDS011;7711;46.634;14.318;2023-12-20T08:53:02;20.30;;;13.80;;
15216;SDS011;7711;46.634;14.318;2023-12-20T08:55:29;21.20;;;13.13;;
15216;SDS011;7711;46.634;14.318;2023-12-20T08:57:58;19.50;;;12.43;;
15216;SDS011;7711;46.634;14.318;2023-12-20T09:00:25;22.97;;;14.50;;
15216;SDS011;7711;46.634;14.318;2023-12-20T09:02:52;18.73;;;12.77;;
15216;SDS011;7711;46.634;14.318;2023-12-20T09:05:20;21.27;;;13.00;;
15216;SDS011;7711;46.634;14.318;2023-12-20T09:07:47;21.63;;;14.17;;
15216;SDS011;7711;46.634;14.318;2023-12-20T09:10:14;21.10;;;14.17;;
15216;SDS011;7711;46.634;14.318;2023-12-20T09:12:41;20.00;;;13.37;;
15216;SDS011;7711;46.634;14.318;2023-12-20T09:15:09;20.53;;;14.23;;
15216;SDS011;7711;46.634;14.318;2023-12-20T09:17:36;16.53;;;12.30;;
15216;SDS011;7711;46.634;14.318;2023-12-20T09:20:03;16.67;;;11.93;;
15216;SDS011;7711;46.634;14.318;2023-12-20T09:22:32;21.07;;;12.23;;
15216;SDS011;7711;46.634;14.318;2023-12-20T09:24:59;18.23;;;12.73;;
15216;SDS011;7711;46.634;14.318;2023-12-20T09:27:27;19.10;;;12.63;;
15216;SDS011;7711;46.634;14.318;2023-12-20T09:29:54;17.37;;;12.97;;
15216;SDS011;7711;46.634;14.318;2023-12-20T09:32:22;16.97;;;12.20;;
15216;SDS011;7711;46.634;14.318;2023-12-20T09:34:49;18.33;;;12.53;;
15216;SDS011;7711;46.634;14.318;2023-12-20T09:37:16;17.00;;;12.47;;
15216;SDS011;7711;46.634;14.318;2023-12-20T09:39:43;19.53;;;12.87;;
15216;SDS011;7711;46.634;14.318;2023-12-20T09:42:11;21.70;;;13.83;;
15216;SDS011;7711;46.634;14.318;2023-12-20T09:44:42;18.53;;;12.53;;
15216;SDS011;7711;46.634;14.318;2023-12-20T09:47:09;21.10;;;13.50;;
15216;SDS011;7711;46.634;14.318;2023-12-20T09:49:38;22.30;;;13.40;;
15216;SDS011;7711;46.634;14.318;2023-12-20T09:52:05;21.33;;;14.30;;
15216;SDS011;7711;46.634;14.318;2023-12-20T09:54:35;20.83;;;13.83;;
15216;SDS011;7711;46.634;14.318;2023-12-20T09:57:02;24.43;;;14.00;;
15216;SDS011;7711;46.634;14.318;2023-12-20T09:59:30;45.93;;;27.50;;
15216;SDS011;7711;46.634;14.318;2023-12-20T10:01:57;44.67;;;27.63;;
15216;SDS011;7711;46.634;14.318;2023-12-20T10:04:28;30.00;;;19.37;;
15216;SDS011;7711;46.634;14.318;2023-12-20T10:07:02;27.47;;;17.03;;
15216;SDS011;7711;46.634;14.318;2023-12-20T10:09:30;27.80;;;16.87;;
15216;SDS011;7711;46.634;14.318;2023-12-20T10:11:58;24.00;;;16.80;;
15216;SDS011;7711;46.634;14.318;2023-12-20T10:14:25;26.53;;;17.40;;
15216;SDS011;7711;46.634;14.318;2023-12-20T10:16:52;35.10;;;23.33;;
15216;SDS011;7711;46.634;14.318;2023-12-20T10:19:20;26.73;;;18.30;;
15216;SDS011;7711;46.634;14.318;2023-12-20T10:21:47;23.03;;;15.67;;
15216;SDS011;7711;46.634;14.318;2023-12-20T10:24:17;23.77;;;14.77;;
15216;SDS011;7711;46.634;14.318;2023-12-20T10:26:44;25.07;;;14.97;;
15216;SDS011;7711;46.634;14.318;2023-12-20T10:29:11;21.63;;;14.87;;
15216;SDS011;7711;46.634;14.318;2023-12-20T10:31:38;23.57;;;15.80;;
15216;SDS011;7711;46.634;14.318;2023-12-20T10:34:05;32.93;;;16.80;;
15216;SDS011;7711;46.634;14.318;2023-12-20T10:36:32;23.20;;;17.20;;
15216;SDS011;7711;46.634;14.318;2023-12-20T10:39:01;24.40;;;17.00;;
15216;SDS011;7711;46.634;14.318;2023-12-20T10:41:30;23.87;;;16.43;;
15216;SDS011;7711;46.634;14.318;2023-12-20T10:43:59;27.00;;;17.57;;
15216;SDS011;7711;46.634;14.318;2023-12-20T10:46:27;25.63;;;17.00;;
15216;SDS011;7711;46.634;14.318;2023-12-20T10:48:55;25.63;;;17.57;;
15216;SDS011;7711;46.634;14.318;2023-12-20T10:51:23;27.70;;;16.63;;
15216;SDS011;7711;46.634;14.318;2023-12-20T10:53:51;24.87;;;16.93;;
15216;SDS011;7711;46.634;14.318;2023-12-20T10:56:19;23.17;;;15.90;;
15216;SDS011;7711;46.634;14.318;2023-12-20T10:58:50;23.07;;;16.47;;
15216;SDS011;7711;46.634;14.318;2023-12-20T11:01:17;25.47;;;19.00;;
15216;SDS011;7711;46.634;14.318;2023-12-20T11:03:48;25.10;;;18.33;;
15216;SDS011;7711;46.634;14.318;2023-12-20T11:06:24;28.50;;;18.97;;
15216;SDS011;7711;46.634;14.318;2023-12-20T11:09:01;27.77;;;18.27;;
15216;SDS011;7711;46.634;14.318;2023-12-20T11:11:39;29.93;;;18.30;;
15216;SDS011;7711;46.634;14.318;2023-12-20T11:14:18;23.60;;;16.30;;
15216;SDS011;7711;46.634;14.318;2023-12-20T11:16:49;29.20;;;18.27;;
15216;SDS011;7711;46.634;14.318;2023-12-20T11:19:17;27.43;;;19.20;;
15216;SDS011;7711;46.634;14.318;2023-12-20T11:21:44;28.40;;;18.13;;
15216;SDS011;7711;46.634;14.318;2023-12-20T11:24:12;28.57;;;18.33;;
15216;SDS011;7711;46.634;14.318;2023-12-20T11:26:39;25.70;;;17.50;;
15216;SDS011;7711;46.634;14.318;2023-12-20T11:29:33;25.80;;;17.13;;
15216;SDS011;7711;46.634;14.318;2023-12-20T11:32:01;22.33;;;16.50;;
15216;SDS011;7711;46.634;14.318;2023-12-20T11:34:31;23.70;;;17.00;;
15216;SDS011;7711;46.634;14.318;2023-12-20T11:36:59;23.17;;;16.57;;
15216;SDS011;7711;46.634;14.318;2023-12-20T11:39:28;23.33;;;15.77;;
15216;SDS011;7711;46.634;14.318;2023-12-20T11:41:57;25.87;;;16.73;;
15216;SDS011;7711;46.634;14.318;2023-12-20T11:44:30;20.70;;;15.03;;
15216;SDS011;7711;46.634;14.318;2023-12-20T11:46:59;24.70;;;15.37;;
15216;SDS011;7711;46.634;14.318;2023-12-20T11:49:26;23.37;;;15.70;;
15216;SDS011;7711;46.634;14.318;2023-12-20T11:51:54;22.53;;;14.90;;
15216;SDS011;7711;46.634;14.318;2023-12-20T11:54:21;21.23;;;15.57;;
15216;SDS011;7711;46.634;14.318;2023-12-20T11:56:48;22.30;;;15.23;;
15216;SDS011;7711;46.634;14.318;2023-12-20T11:59:15;24.03;;;16.03;;
15216;SDS011;7711;46.634;14.318;2023-12-20T12:01:47;19.60;;;14.77;;
15216;SDS011;7711;46.634;14.318;2023-12-20T12:04:17;19.97;;;14.63;;
15216;SDS011;7711;46.634;14.318;2023-12-20T12:06:44;20.17;;;14.07;;
15216;SDS011;7711;46.634;14.318;2023-12-20T12:09:12;21.90;;;14.90;;
15216;SDS011;7711;46.634;14.318;2023-12-20T12:11:40;19.30;;;13.97;;
15216;SDS011;7711;46.634;14.318;2023-12-20T12:14:07;18.10;;;13.67;;
15216;SDS011;7711;46.634;14.318;2023-12-20T12:16:34;19.47;;;14.43;;
15216;SDS011;7711;46.634;14.318;2023-12-20T12:19:01;20.53;;;14.97;;
15216;SDS011;7711;46.634;14.318;2023-12-20T12:21:30;22.67;;;14.90;;
15216;SDS011;7711;46.634;14.318;2023-12-20T12:24:05;20.63;;;14.57;;
15216;SDS011;7711;46.634;14.318;2023-12-20T12:26:33;22.40;;;15.57;;
15216;SDS011;7711;46.634;14.318;2023-12-20T12:29:00;20.07;;;14.80;;
15216;SDS011;7711;46.634;14.318;2023-12-20T12:31:27;20.13;;;14.17;;
15216;SDS011;7711;46.634;14.318;2023-12-20T12:33:55;22.87;;;15.00;;
15216;SDS011;7711;46.634;14.318;2023-12-20T12:36:22;18.97;;;15.00;;
15216;SDS011;7711;46.634;14.318;2023-12-20T12:38:51;21.97;;;15.80;;
15216;SDS011;7711;46.634;14.318;2023-12-20T12:41:17;20.17;;;14.10;;
15216;SDS011;7711;46.634;14.318;2023-12-20T12:43:44;19.13;;;13.90;;
15216;SDS011;7711;46.634;14.318;2023-12-20T12:46:11;20.40;;;14.10;;
15216;SDS011;7711;46.634;14.318;2023-12-20T12:48:38;20.00;;;14.03;;
15216;SDS011;7711;46.634;14.318;2023-12-20T12:51:05;22.43;;;15.10;;
15216;SDS011;7711;46.634;14.318;2023-12-20T12:53:37;19.40;;;14.20;;
15216;SDS011;7711;46.634;14.318;2023-12-20T12:56:06;17.30;;;13.50;;
15216;SDS011;7711;46.634;14.318;2023-12-20T12:58:33;19.17;;;13.53;;
15216;SDS011;7711;46.634;14.318;2023-12-20T13:01:00;21.57;;;15.93;;
15216;SDS011;7711;46.634;14.318;2023-12-20T13:03:28;18.30;;;13.33;;
15216;SDS011;7711;46.634;14.318;2023-12-20T13:05:55;19.33;;;13.70;;
15216;SDS011;7711;46.634;14.318;2023-12-20T13:08:22;19.93;;;14.20;;
15216;SDS011;7711;46.634;14.318;2023-12-20T13:10:49;19.50;;;13.50;;
15216;SDS011;7711;46.634;14.318;2023-12-20T13:13:17;19.73;;;13.70;;
15216;SDS011;7711;46.634;14.318;2023-12-20T13:15:44;19.73;;;14.00;;
15216;SDS011;7711;46.634;14.318;2023-12-20T13:18:15;16.23;;;13.07;;
15216;SDS011;7711;46.634;14.318;2023-12-20T13:20:43;20.40;;;13.83;;
15216;SDS011;7711;46.634;14.318;2023-12-20T13:23:10;19.90;;;14.60;;
15216;SDS011;7711;46.634;14.318;2023-12-20T13:25:37;20.93;;;14.77;;
15216;SDS011;7711;46.634;14.318;2023-12-20T13:28:04;22.97;;;15.27;;
15216;SDS011;7711;46.634;14.318;2023-12-20T13:30:33;21.70;;;14.83;;
15216;SDS011;7711;46.634;14.318;2023-12-20T13:33:00;20.37;;;14.20;;
15216;SDS011;7711;46.634;14.318;2023-12-20T13:35:27;20.83;;;14.70;;
15216;SDS011;7711;46.634;14.318;2023-12-20T13:37:54;21.83;;;14.47;;
15216;SDS011;7711;46.634;14.318;2023-12-20T13:40:21;21.47;;;14.70;;
15216;SDS011;7711;46.634;14.318;2023-12-20T13:42:48;21.20;;;14.87;;
15216;SDS011;7711;46.634;14.318;2023-12-20T13:45:15;21.00;;;14.57;;
15216;SDS011;7711;46.634;14.318;2023-12-20T13:47:43;22.90;;;15.07;;
15216;SDS011;7711;46.634;14.318;2023-12-20T13:50:10;21.43;;;15.50;;
15216;SDS011;7711;46.634;14.318;2023-12-20T13:52:37;25.10;;;17.03;;
15216;SDS011;7711;46.634;14.318;2023-12-20T13:55:04;24.93;;;16.63;;
15216;SDS011;7711;46.634;14.318;2023-12-20T13:57:33;26.93;;;16.10;;
15216;SDS011;7711;46.634;14.318;2023-12-20T14:00:02;23.77;;;15.63;;
15216;SDS011;7711;46.634;14.318;2023-12-20T14:02:30;26.30;;;16.57;;
15216;SDS011;7711;46.634;14.318;2023-12-20T14:04:58;25.00;;;16.67;;
15216;SDS011;7711;46.634;14.318;2023-12-20T14:07:26;22.93;;;15.80;;
15216;SDS011;7711;46.634;14.318;2023-12-20T14:09:54;25.70;;;17.03;;
15216;SDS011;7711;46.634;14.318;2023-12-20T14:12:21;22.13;;;16.43;;
15216;SDS011;7711;46.634;14.318;2023-12-20T14:14:47;22.13;;;15.83;;
15216;SDS011;7711;46.634;14.318;2023-12-20T14:17:14;24.50;;;15.73;;
15216;SDS011;7711;46.634;14.318;2023-12-20T14:19:41;23.07;;;16.70;;
15216;SDS011;7711;46.634;14.318;2023-12-20T14:22:09;26.10;;;16.37;;
15216;SDS011;7711;46.634;14.318;2023-12-20T14:24:36;24.83;;;16.33;;